Weather at St Hyacinthe Airport

Public forecast

Using degrees Celsius for public forecast. Weather courtesy of forecast.io.

Closest aviation weather report (METAR) to St Hyacinthe Airport

Closest report is MontrĂ©al / Saint-Hubert Airport, 17.7 nm (32.8 km) WSW. Retrieved 2020/11/25 16:34 UTC (0 seconds ago):

CYHU 251634Z AUTO 17010G15KT 1 1/4SM R24R/5000FT/N -SN FEW007 OVC020 M00/M01 A3016 RMK ICG SLP217

Closest aviation forecast (TAF) to St Hyacinthe Airport

Closest forecast is MontrĂ©al / Saint-Hubert Airport, 17.7 nm (32.8 km) WSW. Retrieved 2020/11/25 12:42 UTC (3 hours ago):

TAF TAF CYHU 251138Z 2512/2612 10007KT 3SM -SN OVC025 TEMPO 2512/2515 1SM -SN OVC008 FM251500 18012G22KT 6SM -SN OVC025 TEMPO 2515/2518 2SM -SN OVC020 FM251800 18012KT P6SM -SHRASN OVC020 FM252200 19008KT P6SM BKN025 BECMG 2522/2524 VRB03KT FM260500 02008KT P6SM -SHRA OVC020 FM260800 04008KT 1SM -RA BR OVC003 FM261000 04008KT 1/2SM -RA -DZ FG VV002 RMK FCST BASED ON AUTO OBS NXT FCST BY 251800Z